Aviation Digital Data Service (ADDS)

Output produced by TAFs form (1118 UTC 22 December 2014)
found at http://www.aviationweather.gov/adds/tafs/
 
KPOU 220533Z 2206/2306 VRB02KT P6SM VCSH SCT012 OVC022 
     TEMPO 2207/2211 3SM -SHSN BR BKN012 OVC020 
     FM221300 04003KT P6SM OVC025 
     FM222300 VRB03KT P6SM VCSH OVC020 
     FM230300 VRB02KT 4SM -RA BR OVC015